KNFL

Fallon NAS (Van Voorhis Field) Airport

Fallon, Nevada, USA
METAR KNFL 162156Z 16023G29KT 10SM FEW090 11/00 A2989 RMK AO2 PK WND 16029/2155 SLP097 T01110000
Observed Flight Rules
Jan-16 @ 21:56 UTC (38 minutes ago) Visual Flight Rules
Wind Visibility Clouds
160° at 23 knots
 Gusting to 29 knots
10 miles
  • Few at 9,000' AGL
Temperatures Readings
Current 11°C / 52°F
Dewpoint 0°C / 32°F
Humidity 47%
Altimeter 29.89" Hg
Pressure 1009.7 hPa
Elevation 1199
METAR KNFL 162156Z 16023G29KT 10SM FEW090 11/00 A2989 RMK AO2 PK WND 16029/2155 SLP097 T01110000
Observed Flight Rules
Jan-16 @ 21:56 UTC
(38 minutes ago)
VFR
Wind Visibility
160° at 23 knots
 Gusting to 29 knots
10 miles
Clouds
  • Few at 9,000' AGL
Temperature Dewpoint
11°C / 52°F 0°C / 32°F
Humidity Altimeter Pressure
47% 29.89" Hg 1009.7 hPa